createdAt,value
2023-02-07T00:00:54.639Z,4.00
2023-02-07T00:03:22.730Z,4.00
2023-02-07T00:05:50.738Z,3.90
2023-02-07T00:08:18.719Z,3.80
2023-02-07T00:10:48.085Z,3.90
2023-02-07T00:13:16.078Z,3.90
2023-02-07T00:15:44.106Z,3.80
2023-02-07T00:18:12.541Z,3.70
2023-02-07T00:20:40.518Z,3.70
2023-02-07T00:23:08.557Z,3.70
2023-02-07T00:25:36.940Z,3.70
2023-02-07T00:28:06.633Z,3.60
2023-02-07T00:30:34.769Z,3.40
2023-02-07T00:33:05.100Z,3.30
2023-02-07T00:35:33.077Z,3.20
2023-02-07T00:38:01.002Z,3.30
2023-02-07T00:40:29.098Z,3.20
2023-02-07T00:42:57.894Z,3.20
2023-02-07T00:45:27.324Z,3.20
2023-02-07T00:47:55.334Z,3.40
2023-02-07T00:50:23.405Z,3.50
2023-02-07T00:52:52.072Z,3.40
2023-02-07T00:55:20.363Z,3.40
2023-02-07T00:57:48.436Z,3.40
2023-02-07T01:00:16.596Z,3.30
2023-02-07T01:02:45.887Z,3.20
2023-02-07T01:05:13.894Z,3.20
2023-02-07T01:07:42.093Z,3.10
2023-02-07T01:10:11.502Z,3.10
2023-02-07T01:12:41.426Z,3.00
2023-02-07T01:15:10.822Z,3.00
2023-02-07T01:17:38.865Z,2.90
2023-02-07T01:20:09.087Z,2.80
2023-02-07T01:22:37.870Z,2.70
2023-02-07T01:25:06.680Z,2.80
2023-02-07T01:27:34.904Z,2.80
2023-02-07T01:30:03.110Z,2.70
2023-02-07T01:32:32.808Z,2.60
2023-02-07T01:35:00.870Z,2.60
2023-02-07T01:37:30.270Z,2.70
2023-02-07T01:39:58.403Z,2.80
2023-02-07T01:42:28.680Z,2.80
2023-02-07T01:45:00.218Z,2.80
2023-02-07T01:47:28.829Z,2.80
2023-02-07T01:49:58.814Z,2.80
2023-02-07T01:52:28.720Z,2.70
2023-02-07T01:54:59.925Z,2.70
2023-02-07T01:57:28.371Z,2.80
2023-02-07T01:59:57.396Z,2.70
2023-02-07T02:02:28.448Z,2.80
2023-02-07T02:04:56.824Z,2.70
2023-02-07T02:07:26.830Z,2.70
2023-02-07T02:09:54.906Z,2.70
2023-02-07T02:12:43.816Z,2.70
2023-02-07T02:15:21.164Z,2.60
2023-02-07T02:17:58.910Z,2.50
2023-02-07T02:20:45.022Z,2.50
2023-02-07T02:23:18.537Z,2.50
2023-02-07T02:25:52.420Z,2.60
2023-02-07T02:28:35.367Z,2.60
2023-02-07T02:31:24.592Z,2.60
2023-02-07T02:33:56.156Z,2.70
2023-02-07T02:36:29.389Z,2.90
2023-02-07T02:39:01.799Z,2.90
2023-02-07T02:41:32.201Z,2.90
2023-02-07T02:44:05.095Z,2.90
2023-02-07T02:46:35.365Z,2.90
2023-02-07T02:49:06.496Z,2.90
2023-02-07T02:51:34.505Z,2.90
2023-02-07T02:54:02.531Z,2.90
2023-02-07T02:56:47.837Z,2.90
2023-02-07T02:59:33.707Z,2.80
2023-02-07T03:02:08.121Z,2.80
2023-02-07T03:04:49.944Z,2.70
2023-02-07T03:07:25.584Z,2.70
2023-02-07T03:09:57.339Z,2.70
2023-02-07T03:12:27.703Z,2.60
2023-02-07T03:14:58.371Z,2.70
2023-02-07T03:17:31.524Z,2.60
2023-02-07T03:20:13.757Z,2.60
2023-02-07T03:22:44.860Z,2.60
2023-02-07T03:25:15.408Z,2.60
2023-02-07T03:27:45.671Z,2.60
2023-02-07T03:30:16.242Z,2.60
2023-02-07T03:32:46.423Z,2.60
2023-02-07T03:35:19.074Z,2.50
2023-02-07T03:37:49.080Z,2.60
2023-02-07T03:40:17.493Z,2.60
2023-02-07T03:42:48.273Z,2.50
2023-02-07T03:45:18.165Z,2.30
2023-02-07T03:47:47.512Z,2.40
2023-02-07T03:50:17.027Z,2.40
2023-02-07T03:52:45.245Z,2.50
2023-02-07T03:55:13.350Z,2.50
2023-02-07T03:57:41.571Z,2.40
2023-02-07T04:00:10.795Z,2.40
2023-02-07T04:02:41.836Z,2.30
2023-02-07T04:05:10.071Z,2.30
2023-02-07T04:07:39.705Z,2.20
2023-02-07T04:10:07.998Z,2.20
2023-02-07T04:12:36.032Z,2.20
2023-02-07T04:15:04.693Z,2.20
2023-02-07T04:17:32.868Z,2.20
2023-02-07T04:20:01.640Z,2.20
2023-02-07T04:22:29.850Z,2.30
2023-02-07T04:24:59.461Z,2.40
2023-02-07T04:27:27.623Z,2.40
2023-02-07T04:29:56.318Z,2.40
2023-02-07T04:32:24.417Z,2.50
2023-02-07T04:34:52.475Z,2.50
2023-02-07T04:37:20.545Z,2.50
2023-02-07T04:39:48.760Z,2.50
2023-02-07T04:42:18.220Z,2.50
2023-02-07T04:44:46.416Z,2.40
2023-02-07T04:47:14.460Z,2.40
2023-02-07T04:49:42.604Z,2.40
2023-02-07T04:52:10.691Z,2.40
2023-02-07T04:54:38.912Z,2.50
2023-02-07T04:57:07.054Z,2.30
2023-02-07T04:59:36.399Z,2.50
2023-02-07T05:02:04.435Z,2.50
2023-02-07T05:04:32.967Z,2.60
2023-02-07T05:07:01.173Z,2.60
2023-02-07T05:09:29.165Z,2.60
2023-02-07T05:11:57.373Z,2.50
2023-02-07T05:14:25.494Z,2.40
2023-02-07T05:16:54.967Z,2.40
2023-02-07T05:19:23.077Z,2.40
2023-02-07T05:21:51.134Z,2.40
2023-02-07T05:24:19.401Z,2.40
2023-02-07T05:26:47.468Z,2.40
2023-02-07T05:29:15.486Z,2.40
2023-02-07T05:32:01.293Z,2.40
2023-02-07T05:34:31.003Z,2.40
2023-02-07T05:36:59.046Z,2.30
2023-02-07T05:39:27.297Z,2.40
2023-02-07T05:41:55.397Z,2.40
2023-02-07T05:44:23.449Z,2.30
2023-02-07T05:46:52.710Z,2.40
2023-02-07T05:49:20.855Z,2.30
2023-02-07T05:51:50.231Z,2.30
2023-02-07T05:54:18.298Z,2.20
2023-02-07T05:56:46.324Z,2.20
2023-02-07T05:59:14.528Z,2.20
2023-02-07T06:01:42.671Z,2.20
2023-02-07T06:04:10.771Z,2.10
2023-02-07T06:06:38.813Z,2.10
2023-02-07T06:09:08.238Z,2.10
2023-02-07T06:11:36.353Z,2.00
2023-02-07T06:14:04.434Z,2.00
2023-02-07T06:16:32.637Z,2.00
2023-02-07T06:19:00.654Z,1.90
2023-02-07T06:21:45.130Z,2.00
2023-02-07T06:24:15.433Z,2.00
2023-02-07T06:26:43.868Z,2.00
2023-02-07T06:29:11.925Z,1.90
2023-02-07T06:31:40.077Z,1.90
2023-02-07T06:34:08.338Z,1.90
2023-02-07T06:36:36.342Z,1.90
2023-02-07T06:39:04.771Z,1.90
2023-02-07T06:41:34.172Z,1.80
2023-02-07T06:44:02.225Z,1.80
2023-02-07T06:46:30.307Z,1.80
2023-02-07T06:48:58.417Z,1.80
2023-02-07T06:51:26.541Z,1.80
2023-02-07T06:53:54.711Z,1.80
2023-02-07T06:56:22.817Z,1.70
2023-02-07T06:58:52.303Z,1.80
2023-02-07T07:01:22.444Z,1.80
2023-02-07T07:03:51.895Z,1.80
2023-02-07T07:06:20.099Z,1.70
2023-02-07T07:08:48.198Z,1.70
2023-02-07T07:11:16.287Z,1.60
2023-02-07T07:13:44.313Z,1.60
2023-02-07T07:16:13.853Z,1.50
2023-02-07T07:18:42.299Z,1.50
2023-02-07T07:21:10.608Z,1.40
2023-02-07T07:23:38.722Z,1.40
2023-02-07T07:26:07.342Z,1.40
2023-02-07T07:28:35.412Z,1.40
2023-02-07T07:31:04.530Z,1.40
2023-02-07T07:33:34.365Z,1.40
2023-02-07T07:36:03.236Z,1.40
2023-02-07T07:38:32.527Z,1.40
2023-02-07T07:41:01.043Z,1.40
2023-02-07T07:43:29.185Z,1.40
2023-02-07T07:45:59.501Z,1.40
2023-02-07T07:48:27.852Z,1.40
2023-02-07T07:50:57.329Z,1.30
2023-02-07T07:53:25.601Z,1.20
2023-02-07T07:55:54.623Z,1.20
2023-02-07T07:58:23.111Z,1.20
2023-02-07T08:00:51.281Z,1.20
2023-02-07T08:03:20.540Z,1.20
2023-02-07T08:05:48.739Z,1.20
2023-02-07T08:08:18.838Z,1.20
2023-02-07T08:10:47.149Z,1.20
2023-02-07T08:13:17.046Z,1.10
2023-02-07T08:15:45.344Z,1.20
2023-02-07T08:18:13.380Z,1.30
2023-02-07T08:20:41.718Z,1.30
2023-02-07T08:23:09.990Z,1.40
2023-02-07T08:25:39.441Z,1.50
2023-02-07T08:28:07.623Z,1.60
2023-02-07T08:30:36.341Z,1.70
2023-02-07T08:33:04.522Z,1.80
2023-02-07T08:35:32.631Z,1.90
2023-02-07T08:38:00.737Z,2.00
2023-02-07T08:40:29.785Z,2.10
2023-02-07T08:43:00.161Z,2.20
2023-02-07T08:45:28.296Z,2.40
2023-02-07T08:47:56.704Z,2.70
2023-02-07T08:50:24.826Z,2.80
2023-02-07T08:52:52.919Z,2.90
2023-02-07T08:55:21.104Z,3.00
2023-02-07T08:57:49.211Z,3.20
2023-02-07T09:00:19.207Z,3.30
2023-02-07T09:02:47.293Z,3.40
2023-02-07T09:05:15.783Z,3.60
2023-02-07T09:07:44.220Z,3.60
2023-02-07T09:10:12.402Z,3.50
2023-02-07T09:12:40.451Z,3.60
2023-02-07T09:15:08.984Z,3.60
2023-02-07T09:17:38.382Z,3.60
2023-02-07T09:20:07.228Z,3.60
2023-02-07T09:22:56.036Z,3.60
2023-02-07T09:25:24.348Z,3.60
2023-02-07T09:27:52.426Z,3.70
2023-02-07T09:30:20.656Z,3.80
2023-02-07T09:32:50.162Z,3.90
2023-02-07T09:35:18.527Z,3.90
2023-02-07T09:37:49.586Z,4.00
2023-02-07T09:40:19.535Z,4.00
2023-02-07T09:42:52.071Z,4.00
2023-02-07T09:45:21.785Z,4.10
2023-02-07T09:47:53.255Z,4.10
2023-02-07T09:50:22.414Z,4.30
2023-02-07T09:52:51.535Z,4.60
2023-02-07T09:55:21.901Z,4.60
2023-02-07T09:57:51.275Z,4.60
2023-02-07T10:00:24.233Z,4.80
2023-02-07T10:02:58.212Z,5.00
2023-02-07T10:05:28.477Z,5.20
2023-02-07T10:07:56.691Z,5.10
2023-02-07T10:10:28.994Z,5.20
2023-02-07T10:13:11.652Z,5.30
2023-02-07T10:15:44.710Z,5.40
2023-02-07T10:18:26.421Z,5.60
2023-02-07T10:21:00.992Z,5.70
2023-02-07T10:23:36.495Z,5.80
2023-02-07T10:26:06.462Z,5.70
2023-02-07T10:29:04.123Z,5.60
2023-02-07T10:31:32.955Z,5.60
2023-02-07T10:34:04.445Z,5.70
2023-02-07T10:36:34.613Z,5.70
2023-02-07T10:39:09.346Z,5.70
2023-02-07T10:41:39.156Z,5.90
2023-02-07T10:44:07.621Z,5.90
2023-02-07T10:46:35.996Z,6.00
2023-02-07T10:49:05.482Z,5.90
2023-02-07T10:51:35.188Z,6.00
2023-02-07T10:54:07.696Z,6.00
2023-02-07T10:56:39.396Z,5.90
2023-02-07T10:59:28.174Z,5.90
2023-02-07T11:01:56.436Z,5.90
2023-02-07T11:04:34.816Z,6.00
2023-02-07T11:07:04.029Z,6.10
2023-02-07T11:09:37.111Z,6.20
2023-02-07T11:12:14.534Z,6.20
2023-02-07T11:15:00.016Z,6.30
2023-02-07T11:17:28.719Z,6.50
2023-02-07T11:20:03.592Z,6.40
2023-02-07T11:22:32.078Z,6.50
2023-02-07T11:25:03.377Z,6.60
2023-02-07T11:27:36.944Z,6.80
2023-02-07T11:30:07.753Z,6.70
2023-02-07T11:32:36.481Z,6.80
2023-02-07T11:35:09.592Z,6.60
2023-02-07T11:37:38.637Z,6.60
2023-02-07T11:40:24.079Z,6.70
2023-02-07T11:42:58.240Z,6.80
2023-02-07T11:45:27.108Z,6.90
2023-02-07T11:47:57.140Z,7.00
2023-02-07T11:50:29.698Z,7.00
2023-02-07T11:52:59.327Z,7.10
2023-02-07T11:55:28.538Z,7.10
2023-02-07T11:57:58.332Z,7.30
2023-02-07T12:00:27.869Z,7.30
2023-02-07T12:03:01.060Z,7.30
2023-02-07T12:05:32.733Z,7.20
2023-02-07T12:08:03.214Z,6.90
2023-02-07T12:10:33.785Z,6.90
2023-02-07T12:13:04.044Z,7.10
2023-02-07T12:15:36.926Z,7.10
2023-02-07T12:18:07.554Z,7.30
2023-02-07T12:20:39.149Z,7.50
2023-02-07T12:23:39.192Z,7.70
2023-02-07T12:25:59.894Z,7.80
2023-02-07T12:28:31.202Z,7.80
2023-02-07T12:31:04.092Z,7.80
2023-02-07T12:33:38.211Z,7.80
2023-02-07T12:36:12.075Z,7.90
2023-02-07T12:38:43.383Z,7.80
2023-02-07T12:41:15.477Z,8.00
2023-02-07T12:43:47.456Z,8.10
2023-02-07T12:46:21.276Z,8.20
2023-02-07T12:48:56.248Z,8.30
2023-02-07T12:51:31.147Z,8.30
2023-02-07T12:54:08.232Z,8.40
2023-02-07T12:56:41.541Z,8.60
2023-02-07T12:59:17.123Z,8.70
2023-02-07T13:01:47.600Z,9.00
2023-02-07T13:04:25.977Z,9.10
2023-02-07T13:07:00.423Z,9.20
2023-02-07T13:09:31.044Z,9.20
2023-02-07T13:12:03.434Z,9.20
2023-02-07T13:14:35.830Z,9.20
2023-02-07T13:17:14.290Z,9.00
2023-02-07T13:19:46.975Z,8.90
2023-02-07T13:22:20.228Z,8.90
2023-02-07T13:24:48.907Z,8.90
2023-02-07T13:27:18.409Z,9.00
2023-02-07T13:29:47.476Z,9.10
2023-02-07T13:32:19.268Z,9.10
2023-02-07T13:34:49.338Z,9.00
2023-02-07T13:37:18.988Z,9.10
2023-02-07T13:39:52.357Z,9.20
2023-02-07T13:42:24.374Z,9.30
2023-02-07T13:44:55.052Z,9.10
2023-02-07T13:47:41.415Z,9.10
2023-02-07T13:50:16.559Z,9.20
2023-02-07T13:52:51.823Z,9.10
2023-02-07T13:55:25.553Z,9.10
2023-02-07T13:58:12.372Z,9.00
2023-02-07T14:00:56.014Z,9.10
2023-02-07T14:03:28.788Z,9.20
2023-02-07T14:06:14.517Z,9.30
2023-02-07T14:08:44.780Z,9.40
2023-02-07T14:11:27.183Z,9.50
2023-02-07T14:14:04.863Z,9.50
2023-02-07T14:16:50.436Z,9.60
2023-02-07T14:19:45.586Z,9.70
2023-02-07T14:22:15.284Z,9.60
2023-02-07T14:24:50.924Z,9.40
2023-02-07T14:27:31.177Z,9.50
2023-02-07T14:30:23.207Z,9.40
2023-02-07T14:33:10.159Z,9.40
2023-02-07T14:35:38.825Z,9.50
2023-02-07T14:38:13.791Z,9.50
2023-02-07T14:41:09.634Z,9.60
2023-02-07T14:43:44.240Z,9.60
2023-02-07T14:46:16.364Z,9.50
2023-02-07T14:48:49.678Z,9.50
2023-02-07T14:51:19.587Z,9.50
2023-02-07T14:53:51.047Z,9.50
2023-02-07T14:56:27.346Z,9.50
2023-02-07T14:58:56.959Z,9.50
2023-02-07T15:01:25.233Z,9.60
2023-02-07T15:04:04.394Z,9.50
2023-02-07T15:06:37.482Z,9.60
2023-02-07T15:09:05.595Z,9.40
2023-02-07T15:11:38.820Z,9.50
2023-02-07T15:14:07.186Z,9.40
2023-02-07T15:16:38.425Z,9.30
2023-02-07T15:19:10.078Z,9.00
2023-02-07T15:21:39.156Z,8.80
2023-02-07T15:24:08.067Z,8.70
2023-02-07T15:26:36.720Z,8.60
2023-02-07T15:29:07.422Z,8.50
2023-02-07T15:31:39.316Z,8.70
2023-02-07T15:34:13.517Z,8.60
2023-02-07T15:36:42.875Z,8.60
2023-02-07T15:39:15.029Z,8.80
2023-02-07T15:41:45.228Z,8.90
2023-02-07T15:44:22.086Z,9.00
2023-02-07T15:46:51.204Z,9.00
2023-02-07T15:49:30.044Z,8.70
2023-02-07T15:52:01.481Z,8.30
2023-02-07T15:54:29.664Z,8.40
2023-02-07T15:56:59.627Z,8.60
2023-02-07T15:59:31.242Z,8.40
2023-02-07T16:02:01.463Z,8.30
2023-02-07T16:04:30.715Z,8.30
2023-02-07T16:07:00.185Z,8.40
2023-02-07T16:09:39.304Z,8.30
2023-02-07T16:12:24.020Z,8.40
2023-02-07T16:14:53.722Z,8.30
2023-02-07T16:17:23.446Z,8.10
2023-02-07T16:19:51.670Z,8.10
2023-02-07T16:22:21.243Z,7.80
2023-02-07T16:24:49.828Z,7.80
2023-02-07T16:27:19.238Z,7.80
2023-02-07T16:29:47.770Z,7.80
2023-02-07T16:32:17.366Z,7.90
2023-02-07T16:34:59.019Z,7.90
2023-02-07T16:37:28.057Z,7.80
2023-02-07T16:39:56.321Z,7.80
2023-02-07T16:42:24.383Z,7.60
2023-02-07T16:44:52.459Z,7.60
2023-02-07T16:47:23.498Z,7.60
2023-02-07T16:49:51.628Z,7.60
2023-02-07T16:52:19.703Z,7.50
2023-02-07T16:54:48.043Z,7.50
2023-02-07T16:57:16.930Z,7.50
2023-02-07T16:59:45.134Z,7.30
2023-02-07T17:02:14.785Z,7.20
2023-02-07T17:04:44.258Z,7.10
2023-02-07T17:07:12.912Z,7.00
2023-02-07T17:09:41.057Z,7.10
2023-02-07T17:12:10.339Z,7.20
2023-02-07T17:14:39.165Z,7.10
2023-02-07T17:17:07.168Z,7.10
2023-02-07T17:19:35.313Z,7.20
2023-02-07T17:22:04.854Z,7.20
2023-02-07T17:24:33.119Z,7.20
2023-02-07T17:27:01.409Z,7.00
2023-02-07T17:29:30.035Z,6.90
2023-02-07T17:31:58.133Z,6.80
2023-02-07T17:34:26.919Z,6.70
2023-02-07T17:36:54.968Z,6.40
2023-02-07T17:39:24.584Z,6.30
2023-02-07T17:41:52.651Z,6.20
2023-02-07T17:44:23.244Z,6.20
2023-02-07T17:46:51.479Z,6.20
2023-02-07T17:49:19.573Z,6.20
2023-02-07T17:51:47.653Z,6.20
2023-02-07T17:54:15.833Z,6.20
2023-02-07T17:56:45.312Z,6.20
2023-02-07T17:59:21.394Z,6.10
2023-02-07T18:01:49.493Z,6.00
2023-02-07T18:04:17.808Z,6.00
2023-02-07T18:06:45.939Z,5.90
2023-02-07T18:09:17.834Z,5.80
2023-02-07T18:11:47.369Z,5.60
2023-02-07T18:14:15.494Z,5.60
2023-02-07T18:16:43.698Z,5.50
2023-02-07T18:19:12.655Z,5.60
2023-02-07T18:21:40.818Z,5.60
2023-02-07T18:24:09.675Z,5.50
2023-02-07T18:26:38.062Z,5.50
2023-02-07T18:29:07.554Z,5.30
2023-02-07T18:31:36.398Z,5.30
2023-02-07T18:34:04.530Z,5.30
2023-02-07T18:36:40.105Z,5.20
2023-02-07T18:39:08.920Z,5.40
2023-02-07T18:41:37.171Z,5.30
2023-02-07T18:44:05.571Z,5.30
2023-02-07T18:46:35.080Z,5.20
2023-02-07T18:49:03.212Z,5.10
2023-02-07T18:51:31.365Z,5.10
2023-02-07T18:53:59.550Z,5.00
2023-02-07T18:56:27.759Z,5.10
2023-02-07T18:58:57.511Z,5.10
2023-02-07T19:01:27.818Z,5.20
2023-02-07T19:03:58.569Z,5.00
2023-02-07T19:06:27.490Z,5.10
2023-02-07T19:08:55.504Z,5.10
2023-02-07T19:11:24.056Z,5.20
2023-02-07T19:13:52.127Z,5.10
2023-02-07T19:16:21.490Z,5.10
2023-02-07T19:18:50.076Z,5.00
2023-02-07T19:21:21.744Z,4.80
2023-02-07T19:23:49.887Z,4.70
2023-02-07T19:26:17.940Z,4.70
2023-02-07T19:28:46.190Z,4.70
2023-02-07T19:31:17.972Z,4.70
2023-02-07T19:33:46.673Z,4.70
2023-02-07T19:36:15.522Z,4.60
2023-02-07T19:38:46.624Z,4.50
2023-02-07T19:41:14.772Z,4.50
2023-02-07T19:43:42.872Z,4.50
2023-02-07T19:46:10.967Z,4.60
2023-02-07T19:48:39.055Z,4.70
2023-02-07T19:51:09.022Z,4.60
2023-02-07T19:53:37.408Z,4.50
2023-02-07T19:56:09.556Z,4.20
2023-02-07T19:58:39.312Z,4.10
2023-02-07T20:01:07.505Z,4.10
2023-02-07T20:03:35.845Z,4.30
2023-02-07T20:06:05.909Z,4.20
2023-02-07T20:08:35.744Z,4.20
2023-02-07T20:11:05.388Z,4.30
2023-02-07T20:13:35.625Z,4.30
2023-02-07T20:16:05.636Z,4.40
2023-02-07T20:18:34.125Z,4.50
2023-02-07T20:21:10.821Z,4.40
2023-02-07T20:23:41.701Z,4.30
2023-02-07T20:26:11.012Z,4.20
2023-02-07T20:28:41.753Z,4.00
2023-02-07T20:31:10.627Z,3.90
2023-02-07T20:33:39.921Z,3.80
2023-02-07T20:36:08.720Z,3.80
2023-02-07T20:38:36.765Z,4.00
2023-02-07T20:41:08.306Z,4.10
2023-02-07T20:43:36.685Z,4.10
2023-02-07T20:46:07.969Z,4.10
2023-02-07T20:48:36.327Z,4.10
2023-02-07T20:51:09.949Z,4.20
2023-02-07T20:53:39.014Z,4.20
2023-02-07T20:56:08.111Z,4.30
2023-02-07T20:58:36.245Z,4.30
2023-02-07T21:01:09.914Z,4.30
2023-02-07T21:03:38.441Z,4.30
2023-02-07T21:06:07.554Z,4.30
2023-02-07T21:08:36.075Z,4.30
2023-02-07T21:11:05.527Z,4.30
2023-02-07T21:13:33.516Z,4.10
2023-02-07T21:16:03.516Z,4.20
2023-02-07T21:18:33.333Z,4.00
2023-02-07T21:21:01.433Z,3.80
2023-02-07T21:23:29.578Z,3.70
2023-02-07T21:26:03.467Z,3.70
2023-02-07T21:28:31.706Z,3.50
2023-02-07T21:31:02.797Z,3.60
2023-02-07T21:33:30.854Z,3.60
2023-02-07T21:36:08.020Z,3.50
2023-02-07T21:38:36.290Z,3.50
2023-02-07T21:41:05.942Z,3.50
2023-02-07T21:43:34.225Z,3.60
2023-02-07T21:46:06.680Z,3.60
2023-02-07T21:48:35.839Z,3.60
2023-02-07T21:51:05.142Z,3.60
2023-02-07T21:53:34.740Z,3.60
2023-02-07T21:56:03.307Z,3.60
2023-02-07T21:58:31.393Z,3.70
2023-02-07T22:01:05.649Z,3.60
2023-02-07T22:03:33.768Z,3.70
2023-02-07T22:06:01.857Z,3.70
2023-02-07T22:08:29.882Z,3.60
2023-02-07T22:11:02.826Z,3.60
2023-02-07T22:13:31.767Z,3.50
2023-02-07T22:15:59.926Z,3.50
2023-02-07T22:18:28.985Z,3.50
2023-02-07T22:20:57.334Z,3.50
2023-02-07T22:23:25.406Z,3.50
2023-02-07T22:25:53.785Z,3.60
2023-02-07T22:28:23.408Z,3.60
2023-02-07T22:30:51.561Z,3.60
2023-02-07T22:33:19.759Z,3.60
2023-02-07T22:35:48.077Z,3.60
2023-02-07T22:38:16.165Z,3.60
2023-02-07T22:40:44.964Z,3.60
2023-02-07T22:43:13.689Z,3.50
2023-02-07T22:45:46.054Z,3.60
2023-02-07T22:48:15.211Z,3.60
2023-02-07T22:50:43.998Z,3.60
2023-02-07T22:53:12.587Z,3.60
2023-02-07T22:55:41.040Z,3.50
2023-02-07T22:58:09.426Z,3.50
2023-02-07T23:00:37.682Z,3.50
2023-02-07T23:03:07.774Z,3.50
2023-02-07T23:05:37.649Z,3.40
2023-02-07T23:08:06.502Z,3.40
2023-02-07T23:10:34.765Z,3.30
2023-02-07T23:13:03.061Z,3.30
2023-02-07T23:15:31.213Z,3.20
2023-02-07T23:17:59.241Z,3.20
2023-02-07T23:20:28.620Z,3.10
2023-02-07T23:22:56.715Z,3.10
2023-02-07T23:25:24.746Z,3.00
2023-02-07T23:27:53.016Z,3.00
2023-02-07T23:30:21.147Z,3.10
2023-02-07T23:32:49.286Z,3.10
2023-02-07T23:35:17.300Z,3.10
2023-02-07T23:37:47.066Z,3.10
2023-02-07T23:40:15.092Z,3.00
2023-02-07T23:42:43.743Z,3.00
2023-02-07T23:45:11.795Z,3.00
2023-02-07T23:47:39.958Z,3.00
2023-02-07T23:50:08.477Z,3.00
2023-02-07T23:52:36.500Z,3.00
2023-02-07T23:55:06.453Z,3.00
2023-02-07T23:57:34.463Z,3.00
